createdAt,value
2018-05-26T00:00:34.241Z,12.44
2018-05-26T00:01:34.217Z,12.47
2018-05-26T00:02:34.204Z,12.49
2018-05-26T00:03:34.190Z,12.45
2018-05-26T00:04:34.228Z,12.5
2018-05-26T00:05:34.264Z,12.51
2018-05-26T00:06:34.232Z,12.48
2018-05-26T00:07:34.240Z,12.4
2018-05-26T00:08:34.229Z,12.46
2018-05-26T00:09:34.222Z,12.42
2018-05-26T00:10:34.249Z,12.4
2018-05-26T00:11:34.254Z,12.36
2018-05-26T00:12:34.248Z,12.37
2018-05-26T00:13:34.221Z,12.41
2018-05-26T00:14:34.225Z,12.42
2018-05-26T00:15:34.216Z,12.33
2018-05-26T00:16:34.246Z,12.36
2018-05-26T00:17:34.287Z,12.3
2018-05-26T00:18:34.242Z,12.36
2018-05-26T00:19:34.233Z,12.33
2018-05-26T00:20:34.214Z,12.3
2018-05-26T00:21:34.234Z,12.41
2018-05-26T00:22:34.211Z,12.42
2018-05-26T00:23:34.230Z,12.39
2018-05-26T00:24:34.253Z,12.35
2018-05-26T00:25:34.688Z,12.37
2018-05-26T00:26:34.268Z,12.35
2018-05-26T00:27:34.220Z,12.33
2018-05-26T00:28:34.237Z,12.35
2018-05-26T00:29:34.244Z,12.42
2018-05-26T00:30:34.245Z,12.37
2018-05-26T00:31:34.303Z,12.32
2018-05-26T00:32:34.242Z,12.29
2018-05-26T00:33:34.241Z,12.26
2018-05-26T00:34:34.247Z,12.3
2018-05-26T00:35:34.227Z,12.23
2018-05-26T00:36:34.233Z,12.19
2018-05-26T00:37:34.210Z,12.29
2018-05-26T00:38:34.214Z,12.3
2018-05-26T00:39:34.245Z,12.24
2018-05-26T00:40:34.233Z,12.19
2018-05-26T00:41:34.272Z,12.23
2018-05-26T00:42:34.324Z,12.16
2018-05-26T00:43:34.280Z,12.23
2018-05-26T00:44:34.403Z,12.25
2018-05-26T00:45:34.269Z,12.21
2018-05-26T00:46:34.315Z,12.14
2018-05-26T00:47:34.224Z,12.11
2018-05-26T00:48:34.244Z,12.22
2018-05-26T00:49:34.228Z,12.32
2018-05-26T00:50:34.235Z,12.17
2018-05-26T00:51:34.292Z,12.14
2018-05-26T00:52:34.239Z,12.16
2018-05-26T00:53:34.245Z,12.13
2018-05-26T00:54:34.253Z,12.16
2018-05-26T00:55:34.230Z,12.17
2018-05-26T00:56:34.240Z,12.15
2018-05-26T00:57:34.262Z,12.14
2018-05-26T00:58:34.265Z,12.16
2018-05-26T00:59:34.314Z,12.15
2018-05-26T01:00:34.241Z,12.14
2018-05-26T01:01:34.269Z,12.07
2018-05-26T01:02:34.307Z,12.05
2018-05-26T01:03:34.269Z,12.09
2018-05-26T01:04:34.402Z,12.1
2018-05-26T01:05:34.284Z,12.09
2018-05-26T01:06:34.254Z,12.06
2018-05-26T01:07:34.257Z,12.06
2018-05-26T01:08:34.301Z,12.04
2018-05-26T01:09:34.375Z,12.06
2018-05-26T01:10:34.265Z,12
2018-05-26T01:11:34.266Z,12.02
2018-05-26T01:12:34.244Z,12.04
2018-05-26T01:13:34.235Z,12.02
2018-05-26T01:14:34.261Z,12.03
2018-05-26T01:15:34.317Z,11.97
2018-05-26T01:16:34.278Z,11.99
2018-05-26T01:17:34.681Z,11.95
2018-05-26T01:18:34.425Z,11.99
2018-05-26T01:19:34.261Z,11.96
2018-05-26T01:20:34.248Z,11.96
2018-05-26T01:21:34.235Z,11.91
2018-05-26T01:22:34.262Z,11.9
2018-05-26T01:23:34.250Z,11.87
2018-05-26T01:24:34.285Z,11.84
2018-05-26T01:25:34.254Z,11.83
2018-05-26T01:26:34.275Z,11.88
2018-05-26T01:27:34.312Z,11.85
2018-05-26T01:28:34.275Z,11.82
2018-05-26T01:29:34.267Z,11.83
2018-05-26T01:30:34.352Z,11.77
2018-05-26T01:31:34.264Z,11.83
2018-05-26T01:32:34.273Z,11.77
2018-05-26T01:33:34.567Z,11.78
2018-05-26T01:34:34.265Z,11.81
2018-05-26T01:35:34.254Z,11.8
2018-05-26T01:36:34.275Z,11.84
2018-05-26T01:37:34.269Z,11.8
2018-05-26T01:38:34.278Z,11.77
2018-05-26T01:39:34.268Z,11.76
2018-05-26T01:40:34.287Z,11.77
2018-05-26T01:41:34.295Z,11.76
2018-05-26T01:42:34.298Z,11.79
2018-05-26T01:43:34.267Z,11.81
2018-05-26T01:44:34.338Z,11.75
2018-05-26T01:45:34.276Z,11.79
2018-05-26T01:46:34.271Z,11.79
2018-05-26T01:47:34.296Z,11.73
2018-05-26T01:48:34.283Z,11.76
2018-05-26T01:49:34.306Z,11.76
2018-05-26T01:50:34.297Z,11.77
2018-05-26T01:51:34.273Z,11.77
2018-05-26T01:52:34.331Z,11.74
2018-05-26T01:53:34.258Z,11.78
2018-05-26T01:54:34.306Z,11.77
2018-05-26T01:55:34.281Z,11.71
2018-05-26T01:56:34.261Z,11.7
2018-05-26T01:57:34.334Z,11.71
2018-05-26T01:58:34.312Z,11.74
2018-05-26T01:59:34.290Z,11.72
2018-05-26T02:00:34.307Z,11.7
2018-05-26T02:01:34.266Z,11.7
2018-05-26T02:02:34.276Z,11.69
2018-05-26T02:03:34.295Z,11.69
2018-05-26T02:04:34.323Z,11.67
2018-05-26T02:05:34.336Z,11.68
2018-05-26T02:06:34.277Z,11.64
2018-05-26T02:07:34.289Z,11.68
2018-05-26T02:08:34.300Z,11.69
2018-05-26T02:09:34.428Z,11.68
2018-05-26T02:10:34.468Z,11.72
2018-05-26T02:11:34.299Z,11.71
2018-05-26T02:12:34.340Z,11.7
2018-05-26T02:13:34.265Z,11.66
2018-05-26T02:14:34.303Z,11.67
2018-05-26T02:15:34.308Z,11.72
2018-05-26T02:16:34.339Z,11.68
2018-05-26T02:17:34.344Z,11.66
2018-05-26T02:18:34.284Z,11.65
2018-05-26T02:19:34.465Z,11.6
2018-05-26T02:20:34.365Z,11.66
2018-05-26T02:21:34.301Z,11.67
2018-05-26T02:22:34.352Z,11.58
2018-05-26T02:23:34.286Z,11.61
2018-05-26T02:24:34.646Z,11.64
2018-05-26T02:25:34.296Z,11.64
2018-05-26T02:26:34.563Z,11.63
2018-05-26T02:27:34.297Z,11.62
2018-05-26T02:28:34.304Z,11.62
2018-05-26T02:29:34.308Z,11.63
2018-05-26T02:30:34.344Z,11.63
2018-05-26T02:31:34.361Z,11.62
2018-05-26T02:32:34.333Z,11.59
2018-05-26T02:33:34.358Z,11.59
2018-05-26T02:34:34.477Z,11.6
2018-05-26T02:35:34.333Z,11.58
2018-05-26T02:36:34.339Z,11.61
2018-05-26T02:37:34.358Z,11.63
2018-05-26T02:38:34.287Z,11.63
2018-05-26T02:39:34.300Z,11.62
2018-05-26T02:40:34.296Z,11.61
2018-05-26T02:41:34.286Z,11.64
2018-05-26T02:42:54.589Z,11.63
2018-05-26T02:43:54.613Z,11.61
2018-05-26T02:44:54.583Z,11.65
2018-05-26T02:45:54.620Z,11.62
2018-05-26T02:46:54.597Z,11.6
2018-05-26T02:47:54.606Z,11.63
2018-05-26T02:48:54.578Z,11.64
2018-05-26T02:49:54.604Z,11.63
2018-05-26T02:50:54.554Z,11.64
2018-05-26T02:51:54.589Z,11.6
2018-05-26T02:52:54.605Z,11.59
2018-05-26T02:53:54.555Z,11.59
2018-05-26T02:54:54.607Z,11.56
2018-05-26T02:55:54.564Z,11.63
2018-05-26T02:56:54.601Z,11.64
2018-05-26T02:57:54.578Z,11.64
2018-05-26T02:58:54.621Z,11.63
2018-05-26T02:59:54.560Z,11.61
2018-05-26T03:00:54.628Z,11.61
2018-05-26T03:01:54.598Z,11.63
2018-05-26T03:02:54.563Z,11.69
2018-05-26T03:03:54.566Z,11.64
2018-05-26T03:04:54.576Z,11.65
2018-05-26T03:05:54.596Z,11.61
2018-05-26T03:06:54.588Z,11.67
2018-05-26T03:07:54.558Z,11.71
2018-05-26T03:08:54.603Z,11.69
2018-05-26T03:09:54.612Z,11.67
2018-05-26T03:10:54.603Z,11.72
2018-05-26T03:11:54.577Z,11.65
2018-05-26T03:12:54.919Z,11.68
2018-05-26T03:13:54.591Z,11.71
2018-05-26T03:14:54.586Z,11.67
2018-05-26T03:15:54.566Z,11.66
2018-05-26T03:16:54.585Z,11.71
2018-05-26T03:17:54.633Z,11.67
2018-05-26T03:18:54.588Z,11.65
2018-05-26T03:19:54.561Z,11.57
2018-05-26T03:20:54.553Z,11.67
2018-05-26T03:21:54.543Z,11.71
2018-05-26T03:22:54.551Z,11.67
2018-05-26T03:23:54.582Z,11.67
2018-05-26T03:24:54.773Z,11.69
2018-05-26T03:25:54.556Z,11.7
2018-05-26T03:26:54.555Z,11.66
2018-05-26T03:27:54.549Z,11.69
2018-05-26T03:28:54.548Z,11.68
2018-05-26T03:29:54.548Z,11.68
2018-05-26T03:30:54.561Z,11.69
2018-05-26T03:31:54.541Z,11.71
2018-05-26T03:32:54.635Z,11.7
2018-05-26T03:33:54.555Z,11.67
2018-05-26T03:34:54.529Z,11.67
2018-05-26T03:35:54.573Z,11.73
2018-05-26T03:36:54.541Z,11.69
2018-05-26T03:37:54.642Z,11.68
2018-05-26T03:38:54.630Z,11.65
2018-05-26T03:39:54.534Z,11.65
2018-05-26T03:40:54.563Z,11.67
2018-05-26T03:41:54.548Z,11.73
2018-05-26T03:42:54.604Z,11.82
2018-05-26T03:43:54.542Z,11.76
2018-05-26T03:44:54.542Z,11.79
2018-05-26T03:45:54.604Z,11.73
2018-05-26T03:46:54.581Z,11.76
2018-05-26T03:47:54.521Z,11.75
2018-05-26T03:48:54.573Z,11.69
2018-05-26T03:49:54.656Z,11.82
2018-05-26T03:50:54.711Z,11.72
2018-05-26T03:51:54.584Z,11.84
2018-05-26T03:52:54.509Z,11.73
2018-05-26T03:53:54.527Z,11.77
2018-05-26T03:54:54.904Z,11.74
2018-05-26T03:55:54.519Z,11.81
2018-05-26T03:56:54.541Z,11.77
2018-05-26T03:57:54.570Z,11.88
2018-05-26T03:58:54.535Z,11.81
2018-05-26T03:59:54.538Z,11.76
2018-05-26T04:00:54.539Z,11.74
2018-05-26T04:01:54.540Z,11.71
2018-05-26T04:02:54.591Z,11.73
2018-05-26T04:03:54.514Z,11.81
2018-05-26T04:04:54.687Z,11.74
2018-05-26T04:05:55.440Z,11.88
2018-05-26T04:06:54.529Z,11.77
2018-05-26T04:07:54.723Z,11.81
2018-05-26T04:08:54.518Z,11.88
2018-05-26T04:09:54.551Z,11.81
2018-05-26T04:10:54.530Z,11.83
2018-05-26T04:11:54.536Z,11.91
2018-05-26T04:12:54.558Z,11.82
2018-05-26T04:13:54.531Z,11.84
2018-05-26T04:14:54.544Z,12
2018-05-26T04:15:54.551Z,11.86
2018-05-26T04:16:54.639Z,11.95
2018-05-26T04:17:54.521Z,11.89
2018-05-26T04:18:54.499Z,11.88
2018-05-26T04:19:54.618Z,11.95
2018-05-26T04:20:54.521Z,11.93
2018-05-26T04:21:54.907Z,11.94
2018-05-26T04:22:54.526Z,11.89
2018-05-26T04:23:54.876Z,11.84
2018-05-26T04:24:56.421Z,11.88
2018-05-26T04:25:54.548Z,11.91
2018-05-26T04:26:54.574Z,11.9
2018-05-26T04:27:54.559Z,11.89
2018-05-26T04:28:54.506Z,11.84
2018-05-26T04:29:55.270Z,11.93
2018-05-26T04:30:54.669Z,12.02
2018-05-26T04:31:54.803Z,11.9
2018-05-26T04:32:54.599Z,11.97
2018-05-26T04:33:54.578Z,11.92
2018-05-26T04:34:54.675Z,11.92
2018-05-26T04:35:54.568Z,11.9
2018-05-26T04:36:54.599Z,11.92
2018-05-26T04:37:54.612Z,12.03
2018-05-26T04:38:54.589Z,11.97
2018-05-26T04:39:54.559Z,11.99
2018-05-26T04:40:54.538Z,11.95
2018-05-26T04:41:54.531Z,11.93
2018-05-26T04:42:54.545Z,12.05
2018-05-26T04:43:54.542Z,12.02
2018-05-26T04:44:55.722Z,12.07
2018-05-26T04:45:54.629Z,12.05
2018-05-26T04:46:54.555Z,12.14
2018-05-26T04:47:54.549Z,12.07
2018-05-26T04:48:54.555Z,12.03
2018-05-26T04:49:54.527Z,12.06
2018-05-26T04:50:54.612Z,12.1
2018-05-26T04:51:54.591Z,12.04
2018-05-26T04:52:54.545Z,12.1
2018-05-26T04:53:54.597Z,12.14
2018-05-26T04:54:54.570Z,12.17
2018-05-26T04:55:54.539Z,12.12
2018-05-26T04:56:54.576Z,12.08
2018-05-26T04:57:54.553Z,12.14
2018-05-26T04:58:54.543Z,12.1
2018-05-26T04:59:54.547Z,12.12
2018-05-26T05:00:54.558Z,12.2
2018-05-26T05:01:54.535Z,12.11
2018-05-26T05:02:54.660Z,12.24
2018-05-26T05:03:54.542Z,12.2
2018-05-26T05:04:54.524Z,12.22
2018-05-26T05:05:54.513Z,12.4
2018-05-26T05:06:54.537Z,12.31
2018-05-26T05:07:54.679Z,12.33
2018-05-26T05:08:54.583Z,12.29
2018-05-26T05:09:54.542Z,12.25
2018-05-26T05:10:54.557Z,12.26
2018-05-26T05:11:54.492Z,12.23
2018-05-26T05:12:54.528Z,12.39
2018-05-26T05:13:54.489Z,12.36
2018-05-26T05:14:54.521Z,12.33
2018-05-26T05:15:54.490Z,12.42
2018-05-26T05:16:54.517Z,12.49
2018-05-26T05:17:54.504Z,12.48
2018-05-26T05:18:54.503Z,12.41
2018-05-26T05:19:54.516Z,12.45
2018-05-26T05:20:54.625Z,12.46
2018-05-26T05:21:54.524Z,12.4
2018-05-26T05:22:54.826Z,12.44
2018-05-26T05:23:54.498Z,12.38
2018-05-26T05:24:54.513Z,12.51
2018-05-26T05:25:54.500Z,12.53
2018-05-26T05:26:54.488Z,12.51
2018-05-26T05:27:54.839Z,12.54
2018-05-26T05:28:54.506Z,12.48
2018-05-26T05:29:54.546Z,12.54
2018-05-26T05:30:54.574Z,12.54
2018-05-26T05:31:55.306Z,12.44
2018-05-26T05:32:54.566Z,12.58
2018-05-26T05:33:54.734Z,12.56
2018-05-26T05:34:54.521Z,12.58
2018-05-26T05:35:54.589Z,12.58
2018-05-26T05:36:54.534Z,12.55
2018-05-26T05:37:54.549Z,12.6
2018-05-26T05:38:54.473Z,12.6
2018-05-26T05:39:54.551Z,12.63
2018-05-26T05:40:54.562Z,12.58
2018-05-26T05:41:54.622Z,12.57
2018-05-26T05:42:54.524Z,12.54
2018-05-26T05:43:54.560Z,12.54
2018-05-26T05:44:54.576Z,12.56
2018-05-26T05:45:54.527Z,12.55
2018-05-26T05:46:54.496Z,12.56
2018-05-26T05:47:54.485Z,12.68
2018-05-26T05:48:54.500Z,12.64
2018-05-26T05:49:54.507Z,12.67
2018-05-26T05:50:54.515Z,12.61
2018-05-26T05:51:54.490Z,12.68
2018-05-26T05:52:54.579Z,12.57
2018-05-26T05:53:54.698Z,12.6
2018-05-26T05:54:54.637Z,12.61
2018-05-26T05:55:54.532Z,12.59
2018-05-26T05:56:54.532Z,12.61
2018-05-26T05:57:54.614Z,12.67
2018-05-26T05:58:54.776Z,12.68
2018-05-26T05:59:54.519Z,12.64
2018-05-26T06:00:54.514Z,12.66
2018-05-26T06:01:54.527Z,12.64
2018-05-26T06:02:54.507Z,12.77
2018-05-26T06:03:54.503Z,12.67
2018-05-26T06:04:54.551Z,12.71
2018-05-26T06:05:54.724Z,12.7
2018-05-26T06:06:54.747Z,12.78
2018-05-26T06:07:54.533Z,12.78
2018-05-26T06:08:54.505Z,12.74
2018-05-26T06:09:54.696Z,12.72
2018-05-26T06:10:54.602Z,12.74
2018-05-26T06:11:54.472Z,12.77
2018-05-26T06:12:54.512Z,12.76
2018-05-26T06:13:54.646Z,12.75
2018-05-26T06:14:54.807Z,12.76
2018-05-26T06:15:54.516Z,12.77
2018-05-26T06:16:54.527Z,12.77
2018-05-26T06:17:54.923Z,12.82
2018-05-26T06:18:54.537Z,12.84
2018-05-26T06:19:54.482Z,12.79
2018-05-26T06:20:54.496Z,12.76
2018-05-26T06:21:54.539Z,12.81
2018-05-26T06:22:54.472Z,12.83
2018-05-26T06:23:54.482Z,12.79
2018-05-26T06:24:54.497Z,12.79
2018-05-26T06:25:54.505Z,12.8
2018-05-26T06:26:54.465Z,12.78
2018-05-26T06:27:54.484Z,12.79
2018-05-26T06:28:54.500Z,12.77
2018-05-26T06:29:54.492Z,12.81
2018-05-26T06:30:54.475Z,12.79
2018-05-26T06:31:54.493Z,12.82
2018-05-26T06:32:54.466Z,12.82
2018-05-26T06:33:54.506Z,12.88
2018-05-26T06:34:54.569Z,12.87
2018-05-26T06:35:54.761Z,12.87
2018-05-26T06:36:54.473Z,12.83
2018-05-26T06:37:54.579Z,12.82
2018-05-26T06:38:54.557Z,12.87
2018-05-26T06:39:54.521Z,12.86
2018-05-26T06:40:54.539Z,12.96
2018-05-26T06:41:54.549Z,12.96
2018-05-26T06:42:54.488Z,12.97
2018-05-26T06:43:54.448Z,13.02
2018-05-26T06:44:54.456Z,12.97
2018-05-26T06:45:54.535Z,13.02
2018-05-26T06:46:54.707Z,13.05
2018-05-26T06:47:54.473Z,13.02
2018-05-26T06:48:54.811Z,13.09
2018-05-26T06:49:54.477Z,13.1
2018-05-26T06:50:54.610Z,13.1
2018-05-26T06:51:54.498Z,13.04
2018-05-26T06:52:54.500Z,13.13
2018-05-26T06:53:54.586Z,13.05
2018-05-26T06:54:54.486Z,13.08
2018-05-26T06:55:54.809Z,13.04
2018-05-26T06:56:54.467Z,13.05
2018-05-26T06:57:54.471Z,13.07
2018-05-26T06:58:54.500Z,13.16
2018-05-26T06:59:54.440Z,13.14
2018-05-26T07:00:54.732Z,13.13
2018-05-26T07:01:54.442Z,13.14
2018-05-26T07:02:54.473Z,13.18
2018-05-26T07:03:54.446Z,13.23
2018-05-26T07:04:54.629Z,13.25
2018-05-26T07:05:54.741Z,13.29
2018-05-26T07:06:54.508Z,13.25
2018-05-26T07:07:54.467Z,13.24
2018-05-26T07:08:55.307Z,13.27
2018-05-26T07:09:54.453Z,13.26
2018-05-26T07:10:54.426Z,13.24
2018-05-26T07:11:54.456Z,13.22
2018-05-26T07:12:54.507Z,13.29
2018-05-26T07:13:54.509Z,13.26
2018-05-26T07:14:54.442Z,13.32
2018-05-26T07:15:54.521Z,13.31
2018-05-26T07:16:54.478Z,13.42
2018-05-26T07:17:54.456Z,13.39
2018-05-26T07:18:54.449Z,13.47
2018-05-26T07:19:54.445Z,13.38
2018-05-26T07:20:54.450Z,13.3
2018-05-26T07:21:54.474Z,13.36
2018-05-26T07:22:54.728Z,13.37
2018-05-26T07:23:54.495Z,13.35
2018-05-26T07:24:54.544Z,13.29
2018-05-26T07:25:54.460Z,13.35
2018-05-26T07:26:54.471Z,13.39
2018-05-26T07:27:54.756Z,13.34
2018-05-26T07:28:54.443Z,13.32
2018-05-26T07:29:54.486Z,13.3
2018-05-26T07:30:54.498Z,13.33
2018-05-26T07:31:54.429Z,13.38
2018-05-26T07:32:54.437Z,13.32
2018-05-26T07:33:54.443Z,13.26
2018-05-26T07:34:54.526Z,13.42
2018-05-26T07:35:55.131Z,13.44
2018-05-26T07:36:54.430Z,13.42
2018-05-26T07:37:54.449Z,13.39
2018-05-26T07:38:54.499Z,13.38
2018-05-26T07:39:54.477Z,13.41
2018-05-26T07:40:54.530Z,13.42
2018-05-26T07:41:54.479Z,13.37
2018-05-26T07:42:54.580Z,13.4
2018-05-26T07:43:54.460Z,13.36
2018-05-26T07:44:54.460Z,13.4
2018-05-26T07:45:55.428Z,13.5
2018-05-26T07:46:54.492Z,13.41
2018-05-26T07:47:54.474Z,13.47
2018-05-26T07:48:54.446Z,13.51
2018-05-26T07:49:54.448Z,13.46
2018-05-26T07:50:54.800Z,13.52
2018-05-26T07:51:54.479Z,13.4
2018-05-26T07:52:54.438Z,13.35
2018-05-26T07:53:55.000Z,13.37
2018-05-26T07:54:54.480Z,13.39
2018-05-26T07:55:54.434Z,13.43
2018-05-26T07:56:54.447Z,13.44
2018-05-26T07:57:55.493Z,13.46
2018-05-26T07:58:54.495Z,13.37
2018-05-26T07:59:54.532Z,13.56
2018-05-26T08:00:54.670Z,13.56
2018-05-26T08:01:55.495Z,13.62
2018-05-26T08:02:54.471Z,13.69
2018-05-26T08:03:54.444Z,13.69
2018-05-26T08:04:54.437Z,13.6
2018-05-26T08:05:54.438Z,13.57
2018-05-26T08:06:54.438Z,13.48
2018-05-26T08:07:54.444Z,13.43
2018-05-26T08:08:54.478Z,13.4
2018-05-26T08:09:54.416Z,13.49
2018-05-26T08:10:54.804Z,13.64
2018-05-26T08:11:54.458Z,13.57
2018-05-26T08:12:54.510Z,13.6
2018-05-26T08:13:54.476Z,13.67
2018-05-26T08:14:54.453Z,13.65
2018-05-26T08:15:54.416Z,13.6
2018-05-26T08:16:54.574Z,13.62
2018-05-26T08:17:54.426Z,13.64
2018-05-26T08:18:54.488Z,13.64
2018-05-26T08:19:54.450Z,13.58
2018-05-26T08:20:54.460Z,13.65
2018-05-26T08:21:54.458Z,13.6
2018-05-26T08:22:54.480Z,13.52
2018-05-26T08:23:54.402Z,13.53
2018-05-26T08:24:54.444Z,13.61
2018-05-26T08:25:54.616Z,13.66
2018-05-26T08:26:54.453Z,13.64
2018-05-26T08:27:54.415Z,13.67
2018-05-26T08:28:54.495Z,13.67
2018-05-26T08:29:54.596Z,13.63
2018-05-26T08:30:54.592Z,13.71
2018-05-26T08:31:54.406Z,13.77
2018-05-26T08:32:54.424Z,13.68
2018-05-26T08:33:55.060Z,13.67
2018-05-26T08:34:54.462Z,13.73
2018-05-26T08:35:54.456Z,13.68
2018-05-26T08:36:54.435Z,13.73
2018-05-26T08:37:54.450Z,13.55
2018-05-26T08:38:54.927Z,13.66
2018-05-26T08:39:54.970Z,13.59
2018-05-26T08:40:54.438Z,13.61
2018-05-26T08:41:54.433Z,13.54
2018-05-26T08:42:54.446Z,13.53
2018-05-26T08:43:54.948Z,13.56
2018-05-26T08:44:54.447Z,13.75
2018-05-26T08:45:54.456Z,13.67
2018-05-26T08:46:54.413Z,13.77
2018-05-26T08:47:54.443Z,13.64
2018-05-26T08:48:54.435Z,13.73
2018-05-26T08:49:54.428Z,13.78
2018-05-26T08:50:54.446Z,13.81
2018-05-26T08:51:54.417Z,13.79
2018-05-26T08:52:54.431Z,13.57
2018-05-26T08:53:54.459Z,13.65
2018-05-26T08:54:56.507Z,13.5
2018-05-26T08:55:54.418Z,13.49
2018-05-26T08:56:54.440Z,13.57
2018-05-26T08:57:54.405Z,13.85
2018-05-26T08:58:54.500Z,13.68
2018-05-26T08:59:54.583Z,13.52
2018-05-26T09:00:54.468Z,13.68
2018-05-26T09:01:54.435Z,13.8
2018-05-26T09:02:54.398Z,13.88
2018-05-26T09:03:56.729Z,13.96
2018-05-26T09:04:54.450Z,13.65
2018-05-26T09:05:54.398Z,13.82
2018-05-26T09:06:54.414Z,13.97
2018-05-26T09:07:54.449Z,14.07
2018-05-26T09:08:54.405Z,13.95
2018-05-26T09:09:54.438Z,13.63
2018-05-26T09:10:54.527Z,13.44
2018-05-26T09:11:56.575Z,13.44
2018-05-26T09:12:54.525Z,13.22
2018-05-26T09:13:54.427Z,13.46
2018-05-26T09:14:54.751Z,13.31
2018-05-26T09:15:54.814Z,13.04
2018-05-26T09:16:54.474Z,13.11
2018-05-26T09:17:55.941Z,13.18
2018-05-26T09:18:54.446Z,13.25
2018-05-26T09:19:54.429Z,13.28
2018-05-26T09:20:54.451Z,13.11
2018-05-26T09:21:54.766Z,13.16
2018-05-26T09:22:54.422Z,13.13
2018-05-26T09:23:54.442Z,13.17
2018-05-26T09:24:54.401Z,13.22
2018-05-26T09:25:54.395Z,13.46
2018-05-26T09:26:54.411Z,13.32
2018-05-26T09:27:54.420Z,13.34
2018-05-26T09:28:54.440Z,13.46
2018-05-26T09:29:54.415Z,13.44
2018-05-26T09:30:54.416Z,13.59
2018-05-26T09:31:54.428Z,13.56
2018-05-26T09:32:54.405Z,13.86
2018-05-26T09:33:54.434Z,13.71
2018-05-26T09:34:54.448Z,13.66
2018-05-26T09:35:54.414Z,13.41
2018-05-26T09:36:55.263Z,13.37
2018-05-26T09:37:54.458Z,13.33
2018-05-26T09:38:54.564Z,13.39
2018-05-26T09:39:54.385Z,13.26
2018-05-26T09:40:54.615Z,13.5
2018-05-26T09:41:54.594Z,13.29
2018-05-26T09:42:54.444Z,13.44
2018-05-26T09:43:54.443Z,13.62
2018-05-26T09:44:54.426Z,13.61
2018-05-26T09:45:55.041Z,13.71
2018-05-26T09:46:55.159Z,13.7
2018-05-26T09:47:55.148Z,13.31
2018-05-26T09:48:55.145Z,13.34
2018-05-26T09:49:55.052Z,13.51
2018-05-26T09:50:55.185Z,13.36
2018-05-26T09:51:55.113Z,13.22
2018-05-26T09:52:55.088Z,13.04
2018-05-26T09:53:55.570Z,13.33
2018-05-26T09:54:55.346Z,13.24
2018-05-26T09:55:55.224Z,13.4
2018-05-26T09:56:55.217Z,13.46
2018-05-26T09:57:56.084Z,13.52
2018-05-26T09:58:55.887Z,13.39
2018-05-26T09:59:55.071Z,13.27
2018-05-26T10:00:55.122Z,13.26
2018-05-26T10:01:55.148Z,13.39
2018-05-26T10:02:56.145Z,13.32
2018-05-26T10:03:56.093Z,13.33
2018-05-26T10:04:55.246Z,13.03
2018-05-26T10:05:55.109Z,13.21
2018-05-26T10:06:55.743Z,13.44
2018-05-26T10:07:55.131Z,13.19
2018-05-26T10:08:55.782Z,13.32
2018-05-26T10:09:55.383Z,13.3
2018-05-26T10:10:55.154Z,13.33
2018-05-26T10:11:54.993Z,13.24
2018-05-26T10:12:55.127Z,13.27
2018-05-26T10:13:55.275Z,13.24
2018-05-26T10:14:55.111Z,13.5
2018-05-26T10:15:55.124Z,13.28
2018-05-26T10:16:55.944Z,13.42
2018-05-26T10:17:55.164Z,13.62
2018-05-26T10:18:54.935Z,13.54
2018-05-26T10:19:55.571Z,13.51
2018-05-26T10:20:55.996Z,13.63
2018-05-26T10:21:55.191Z,13.56
2018-05-26T10:22:55.163Z,13.28
2018-05-26T10:23:55.133Z,13.14
2018-05-26T10:24:55.231Z,13.31
2018-05-26T10:25:55.967Z,13.31
2018-05-26T10:26:55.198Z,13.43
2018-05-26T10:27:55.072Z,13.14
2018-05-26T10:28:55.501Z,13.09
2018-05-26T10:29:55.331Z,13.08
2018-05-26T10:30:56.111Z,13.15
2018-05-26T10:31:55.219Z,13.16
2018-05-26T10:32:55.160Z,13.18
2018-05-26T10:33:55.705Z,13.27
2018-05-26T10:34:55.842Z,13.47
2018-05-26T10:35:55.151Z,13.03
2018-05-26T10:36:55.159Z,13.14
2018-05-26T10:37:55.673Z,13.03
2018-05-26T10:38:54.373Z,13.02
2018-05-26T10:39:55.212Z,12.89
2018-05-26T10:40:55.516Z,12.81
2018-05-26T10:41:55.091Z,12.69
2018-05-26T10:42:54.374Z,12.64
2018-05-26T10:43:55.389Z,12.65
2018-05-26T10:44:55.280Z,12.75
2018-05-26T10:45:54.390Z,12.95
2018-05-26T10:46:54.446Z,12.93
2018-05-26T10:47:54.416Z,12.75
2018-05-26T10:48:54.458Z,12.81
2018-05-26T10:49:54.809Z,12.75
2018-05-26T10:50:54.567Z,13.07
2018-05-26T10:51:54.368Z,13.1
2018-05-26T10:52:54.585Z,13.07
2018-05-26T10:53:54.444Z,13.01
2018-05-26T10:54:54.499Z,13.16
2018-05-26T10:55:54.843Z,13.05
2018-05-26T10:56:54.442Z,13.08
2018-05-26T10:57:54.439Z,13.21
2018-05-26T10:58:54.397Z,13.39
2018-05-26T10:59:54.467Z,12.96
2018-05-26T11:00:54.367Z,12.66
2018-05-26T11:01:54.483Z,12.6
2018-05-26T11:02:54.392Z,12.65
2018-05-26T11:03:54.456Z,12.52
2018-05-26T11:04:54.600Z,12.38
2018-05-26T11:05:54.492Z,12.46
2018-05-26T11:06:54.785Z,12.68
2018-05-26T11:07:54.394Z,12.78
2018-05-26T11:08:54.517Z,13.03
2018-05-26T11:09:54.367Z,13.11
2018-05-26T11:10:54.547Z,13.06
2018-05-26T11:11:54.482Z,13.08
2018-05-26T11:12:54.524Z,13.02
2018-05-26T11:13:54.569Z,12.54
2018-05-26T11:14:55.039Z,12.26
2018-05-26T11:15:54.408Z,12.33
2018-05-26T11:16:55.507Z,12.12
2018-05-26T11:17:56.506Z,12.38
2018-05-26T11:18:54.916Z,12.62
2018-05-26T11:19:54.589Z,12.68
2018-05-26T11:20:54.425Z,12.67
2018-05-26T11:21:54.384Z,12.63
2018-05-26T11:22:54.702Z,12.6
2018-05-26T11:23:54.994Z,12.77
2018-05-26T11:24:54.729Z,12.74
2018-05-26T11:25:54.487Z,12.48
2018-05-26T11:26:54.740Z,12.63
2018-05-26T11:27:54.444Z,12.85
2018-05-26T11:28:54.930Z,12.72
2018-05-26T11:29:54.869Z,12.92
2018-05-26T11:30:54.791Z,12.7
2018-05-26T11:31:54.633Z,12.54
2018-05-26T11:32:54.418Z,12.79
2018-05-26T11:33:54.360Z,12.57
2018-05-26T11:34:54.489Z,12.64
2018-05-26T11:35:54.351Z,12.26
2018-05-26T11:36:54.362Z,12.62
2018-05-26T11:37:54.512Z,12.08
2018-05-26T11:38:54.351Z,12.29
2018-05-26T11:39:54.336Z,12.23
2018-05-26T11:40:54.489Z,12.42
2018-05-26T11:41:54.510Z,12.3
2018-05-26T11:42:54.369Z,12.44
2018-05-26T11:43:54.398Z,12.39
2018-05-26T11:44:54.386Z,12.59
2018-05-26T11:45:54.362Z,12.45
2018-05-26T11:46:54.477Z,12.64
2018-05-26T11:47:54.484Z,12.39
2018-05-26T11:48:54.382Z,12.54
2018-05-26T11:49:54.477Z,12.47
2018-05-26T11:50:54.352Z,12.45
2018-05-26T11:51:54.363Z,12.24
2018-05-26T11:52:54.522Z,12.44
2018-05-26T11:53:54.386Z,12.44
2018-05-26T11:54:54.350Z,12.52
2018-05-26T11:55:54.427Z,12.54
2018-05-26T11:56:54.349Z,12.79
2018-05-26T11:57:54.372Z,12.48
2018-05-26T11:58:54.464Z,12.59
2018-05-26T11:59:54.351Z,12.17
2018-05-26T12:00:54.358Z,12.17
2018-05-26T12:01:55.048Z,12.4
2018-05-26T12:02:54.587Z,12.44
2018-05-26T12:03:54.339Z,12.74
2018-05-26T12:04:54.495Z,12.71
2018-05-26T12:05:54.368Z,12.73
2018-05-26T12:06:54.528Z,12.6
2018-05-26T12:07:54.410Z,12.5
2018-05-26T12:08:54.356Z,12.42
2018-05-26T12:09:54.412Z,12.45
2018-05-26T12:10:55.136Z,12.27
2018-05-26T12:11:54.376Z,12.53
2018-05-26T12:12:54.592Z,12.08
2018-05-26T12:13:54.443Z,11.63
2018-05-26T12:14:54.366Z,11.48
2018-05-26T12:15:54.348Z,11.64
2018-05-26T12:16:54.662Z,11.63
2018-05-26T12:17:54.580Z,11.8
2018-05-26T12:18:54.391Z,11.84
2018-05-26T12:19:54.505Z,11.87
2018-05-26T12:20:54.448Z,11.86
2018-05-26T12:21:54.454Z,11.82
2018-05-26T12:22:54.422Z,11.97
2018-05-26T12:23:54.354Z,12.02
2018-05-26T12:24:54.459Z,12.36
2018-05-26T12:25:54.360Z,12.27
2018-05-26T12:26:54.686Z,12.4
2018-05-26T12:27:54.353Z,12.46
2018-05-26T12:28:54.414Z,12.18
2018-05-26T12:29:54.389Z,12.06
2018-05-26T12:30:54.346Z,12.07
2018-05-26T12:31:54.489Z,12.51
2018-05-26T12:32:54.780Z,12.27
2018-05-26T12:33:54.386Z,12.44
2018-05-26T12:34:55.511Z,12.19
2018-05-26T12:35:54.355Z,12.12
2018-05-26T12:36:54.362Z,11.82
2018-05-26T12:37:56.463Z,11.68
2018-05-26T12:38:54.333Z,11.98
2018-05-26T12:39:54.360Z,12
2018-05-26T12:40:54.541Z,11.97
2018-05-26T12:41:54.561Z,11.77
2018-05-26T12:42:54.416Z,11.85
2018-05-26T12:43:54.471Z,12.08
2018-05-26T12:44:54.909Z,12.01
2018-05-26T12:45:54.355Z,11.96
2018-05-26T12:46:54.473Z,12.3
2018-05-26T12:47:54.379Z,12.52
2018-05-26T12:48:54.379Z,12.21
2018-05-26T12:49:54.487Z,12.41
2018-05-26T12:50:54.370Z,12.4
2018-05-26T12:51:54.506Z,12.06
2018-05-26T12:52:54.367Z,12.4
2018-05-26T12:53:54.333Z,12.3
2018-05-26T12:54:54.369Z,12.11
2018-05-26T12:55:54.372Z,12.34